Terminal Aerodrome Forecast
Issued by NWS Bismarck, ND

Home | Current Version | Previous Version | Graphics & Text | Print | Product List | Glossary On
Versions: 1 2 3 4 5 6 7 8 9 10 11 12 13 14
055
FTUS43 KBIS 271738
TAFBIS
TAF
KBIS 271738Z 2718/2818 06013G18KT P6SM OVC045
     FM272000 06014G19KT P6SM BKN110 OVC200
     FM280200 05007KT P6SM -SHRA SCT050 BKN080 OVC100
     FM281200 06005KT P6SM SCT080 OVC100=

USA.gov is the U.S. government's official web portal to all federal, state and local government web resources and services.